weather.gov     
National Weather Service

Terminal Aerodrome Forecast
NWS Homepage
This page is being discontinued on March 12, 2014.
The same data is available at this site. Please update your bookmarks.
Thank you, and we apologize for the inconvenience.
Please send an email to SR-SRH.Webmaster@noaa.gov with any concerns.


Current Version
Previous Version:    01  02  03  04  05  06  07  08  09  10  11  12  13  14  15  16  17  18  19  20  21  22  23  24  25  26  27  28  29  30  
   31  
[Printable]
300
FTUS45 KREV 250500
TAFTVL
TAF
KTVL 250524Z 2506/2606 19012G20KT P6SM VCSH SCT030 BKN060
      WS020/25040KT
     FM250800 19012G20KT 5SM -RASN OVC020 WS020/25035KT
     FM251100 19012G20KT 2SM -SHSN OVC015
     FM251500 19010KT 5SM -SHSN OVC025=


U.S. Dept. of Commerce
NOAA National Weather Service
1325 East West Highway
Silver Spring, MD 20910
E-mail: w-nws.webmaster@noaa.gov
Page last modified: May 16, 2007
NATIONAL WEATHER SERVICE: for Safety, for Work, for Fun - FOR LIFE